Time;durP1;ratioP1;P1;durP2;ratioP2;P2;SDS_P1;SDS_P2;PMS_P1;PMS_P2;Temp;Humidity;BMP_temperature;BMP_pressure;BME280_temperature;BME280_humidity;BME280_pressure;Samples;Min_cycle;Max_cycle;Signal;HPM_P1;HPM_P2
2022/04/14 00:01:28;;;;;;;0.10;0.10;;;;;;;14.78;60.38;102097.28;5022457;28;20047;-82
2022/04/14 00:03:54;;;;;;;0.10;0.10;;;;;;;14.75;60.39;102098.22;5032429;28;20068;-82
2022/04/14 00:06:20;;;;;;;0.00;0.00;;;;;;;14.72;60.54;102093.81;5021471;28;20034;-82
2022/04/14 00:08:46;;;;;;;0.10;0.10;;;;;;;14.66;61.10;102090.38;5019026;28;20053;-82
2022/04/14 00:11:13;;;;;;;0.57;0.57;;;;;;;14.64;60.54;102082.38;5012368;28;20129;-83
2022/04/14 00:13:39;;;;;;;0.10;0.10;;;;;;;14.60;60.97;102080.66;5008343;28;20494;-82
2022/04/14 00:16:06;;;;;;;0.10;0.10;;;;;;;14.57;61.15;102086.06;5016128;28;20044;-82
2022/04/14 00:18:32;;;;;;;0.00;0.00;;;;;;;14.53;61.25;102085.22;5022752;28;20061;-82
2022/04/14 00:20:58;;;;;;;0.43;0.43;;;;;;;14.50;60.81;102085.25;5014864;28;20034;-82
2022/04/14 00:23:24;;;;;;;0.28;0.28;;;;;;;14.45;61.62;102086.25;5006668;28;20059;-82
2022/04/14 00:25:50;;;;;;;0.10;0.10;;;;;;;14.39;61.64;102077.47;5024736;28;20034;-82
2022/04/14 00:28:16;;;;;;;0.05;0.05;;;;;;;14.36;61.99;102082.81;5023322;28;20054;-81
2022/04/14 00:30:42;;;;;;;0.00;0.00;;;;;;;14.34;61.54;102078.41;5015616;28;20037;-82
2022/04/14 00:33:08;;;;;;;0.40;0.40;;;;;;;14.28;61.84;102078.50;5013320;28;20053;-82
2022/04/14 00:35:34;;;;;;;0.30;0.30;;;;;;;14.27;61.93;102080.31;5007668;28;20046;-82
2022/04/14 00:38:00;;;;;;;0.93;0.77;;;;;;;14.27;62.18;102074.97;5005617;28;20041;-83
2022/04/14 00:40:27;;;;;;;0.73;0.73;;;;;;;14.27;61.58;102076.75;5010407;28;20088;-83
2022/04/14 00:42:53;;;;;;;0.20;0.20;;;;;;;14.24;61.49;102073.25;5009304;28;20080;-83
2022/04/14 00:45:19;;;;;;;0.35;0.35;;;;;;;14.17;63.08;102066.25;5014807;28;20030;-83
2022/04/14 00:47:45;;;;;;;0.20;0.20;;;;;;;14.17;62.00;102063.59;5011583;28;20053;-83
2022/04/14 00:50:13;;;;;;;0.00;0.00;;;;;;;14.14;61.42;102060.94;5016399;28;20037;-83
2022/04/14 00:52:47;;;;;;;1.17;0.45;;;;;;;14.13;62.75;102069.88;5007247;28;20117;-83
2022/04/14 00:55:14;;;;;;;0.10;0.10;;;;;;;14.07;62.91;102061.97;5006140;28;20413;-84
2022/04/14 00:57:41;;;;;;;0.38;0.38;;;;;;;14.05;62.47;102061.09;5020893;28;20041;-83
2022/04/14 01:00:08;;;;;;;0.35;0.35;;;;;;;14.05;61.92;102061.09;5021952;28;20022;-83
2022/04/14 01:02:34;;;;;;;0.00;0.00;;;;;;;14.01;62.33;102054.06;5015945;28;20034;-82
2022/04/14 01:05:02;;;;;;;0.15;0.15;;;;;;;14.00;61.94;102063.81;5005694;28;20041;-82
2022/04/14 01:07:31;;;;;;;0.10;0.10;;;;;;;13.97;61.82;102062.97;5017632;28;20037;-82
2022/04/14 01:09:58;;;;;;;0.00;0.00;;;;;;;13.96;61.91;102063.91;5013810;28;20030;-82
2022/04/14 01:12:25;;;;;;;0.20;0.20;;;;;;;13.95;61.41;102071.00;5013698;28;20118;-83
2022/04/14 01:14:52;;;;;;;0.30;0.30;;;;;;;13.92;61.81;102065.75;5013510;28;20034;-82
2022/04/14 01:17:18;;;;;;;0.50;0.50;;;;;;;13.84;62.10;102063.16;5007699;28;20062;-82
2022/04/14 01:19:44;;;;;;;0.10;0.10;;;;;;;13.83;61.97;102065.84;5006702;28;20513;-81
2022/04/14 01:24:56;;;;;;;0.32;0.32;;;;;;;13.78;62.58;102084.56;5069948;28;20408;-78
2022/04/14 01:27:23;;;;;;;0.20;0.20;;;;;;;13.71;62.78;102074.91;5071395;28;20035;-79
2022/04/14 01:29:53;;;;;;;0.10;0.10;;;;;;;13.69;61.96;102079.38;5065184;28;20098;-77
2022/04/14 01:32:19;;;;;;;0.20;0.20;;;;;;;13.66;62.85;102074.09;5054839;28;20116;-78
2022/04/14 01:34:46;;;;;;;0.00;0.00;;;;;;;13.64;62.70;102081.22;5046397;28;20030;-78
2022/04/14 01:37:12;;;;;;;0.10;0.10;;;;;;;13.63;62.59;102080.31;5044892;28;20034;-79
2022/04/14 01:39:39;;;;;;;0.25;0.25;;;;;;;13.59;62.44;102079.50;5046544;28;20030;-77
2022/04/14 01:42:06;;;;;;;0.10;0.10;;;;;;;13.58;62.37;102083.06;5045239;28;20053;-77
2022/04/14 01:44:33;;;;;;;0.10;0.10;;;;;;;13.55;62.48;102083.09;5047910;28;20021;-77
2022/04/14 01:46:59;;;;;;;0.13;0.13;;;;;;;13.53;62.51;102084.91;5050352;28;20038;-79
2022/04/14 01:49:25;;;;;;;0.10;0.10;;;;;;;13.52;62.01;102088.47;5043044;28;20036;-78
2022/04/14 01:51:51;;;;;;;3.10;0.65;;;;;;;13.50;61.97;102087.59;5048968;28;20025;-78
2022/04/14 01:54:17;;;;;;;0.10;0.10;;;;;;;13.48;62.81;102081.38;5049002;28;20030;-78
2022/04/14 01:56:45;;;;;;;0.10;0.10;;;;;;;13.46;61.82;102085.88;5044149;28;20125;-78
2022/04/14 01:59:12;;;;;;;0.10;0.10;;;;;;;13.43;62.52;102083.22;5046053;28;20025;-78
2022/04/14 02:01:39;;;;;;;0.05;0.05;;;;;;;13.42;63.38;102084.13;5046512;28;20025;-78
2022/04/14 02:04:07;;;;;;;0.10;0.10;;;;;;;13.37;63.59;102089.53;5047413;28;20022;-79
2022/04/14 02:06:33;;;;;;;0.25;0.25;;;;;;;13.37;63.44;102093.91;5045687;28;20092;-78
2022/04/14 02:09:00;;;;;;;0.30;0.30;;;;;;;13.36;63.87;102100.16;5041720;28;20021;-79
2022/04/14 02:11:26;;;;;;;0.10;0.10;;;;;;;13.32;63.59;102095.75;5033914;28;20041;-78
2022/04/14 02:13:52;;;;;;;0.00;0.00;;;;;;;13.31;62.60;102099.31;5044217;28;20021;-77
2022/04/14 02:16:18;;;;;;;0.20;0.20;;;;;;;13.29;62.69;102102.00;5045053;28;20091;-78
2022/04/14 02:18:44;;;;;;;1.00;1.00;;;;;;;13.29;63.37;102101.13;5041195;28;20045;-78
2022/04/14 02:21:11;;;;;;;0.10;0.10;;;;;;;13.30;63.62;102097.56;5035811;28;20041;-78
2022/04/14 02:23:37;;;;;;;0.63;0.63;;;;;;;13.27;63.47;102096.69;5047849;28;20042;-78
2022/04/14 02:26:03;;;;;;;0.17;0.17;;;;;;;13.26;63.82;102097.59;5039313;28;20396;-78
2022/04/14 02:28:29;;;;;;;0.10;0.10;;;;;;;13.27;62.96;102094.03;5046978;28;20029;-78
2022/04/14 02:30:55;;;;;;;0.10;0.10;;;;;;;13.25;62.79;102094.94;5042312;28;20034;-78
2022/04/14 02:33:21;;;;;;;0.10;0.10;;;;;;;13.24;62.81;102096.72;5043875;28;20104;-78
2022/04/14 02:35:47;;;;;;;1.35;1.27;;;;;;;13.22;63.49;102101.19;5028754;28;20030;-78
2022/04/14 02:38:14;;;;;;;0.28;0.28;;;;;;;13.18;64.25;102107.44;5027101;28;20030;-77
2022/04/14 02:40:40;;;;;;;0.32;0.32;;;;;;;13.16;64.03;102100.34;5030663;28;20041;-77
2022/04/14 02:43:06;;;;;;;2.95;0.98;;;;;;;13.11;64.15;102103.97;5026653;28;20041;-78
2022/04/14 02:45:32;;;;;;;0.75;0.75;;;;;;;13.12;63.16;102102.16;5042003;28;20052;-79
2022/04/14 02:47:58;;;;;;;0.10;0.10;;;;;;;13.10;63.32;102096.88;5033612;28;20033;-77
2022/04/14 02:50:26;;;;;;;0.10;0.10;;;;;;;13.09;63.33;102104.88;5041674;28;20485;-77
2022/04/14 02:52:54;;;;;;;0.00;0.00;;;;;;;13.09;62.88;102103.09;5049302;28;20021;-77
2022/04/14 02:55:21;;;;;;;0.13;0.13;;;;;;;13.06;63.38;102104.88;5037689;28;20044;-77
2022/04/14 02:57:48;;;;;;;0.00;0.00;;;;;;;13.05;63.28;102103.16;5026612;28;20022;-77
2022/04/14 03:00:15;;;;;;;0.52;0.52;;;;;;;13.02;63.19;102092.53;5028899;28;20141;-79
2022/04/14 03:02:42;;;;;;;0.70;0.47;;;;;;;13.01;62.96;102101.41;5028367;28;20578;-79
2022/04/14 03:05:09;;;;;;;0.08;0.08;;;;;;;13.00;62.97;102104.97;5020531;28;20105;-79
2022/04/14 03:07:36;;;;;;;0.00;0.00;;;;;;;12.97;63.42;102105.88;5030317;28;20026;-78
2022/04/14 03:10:04;;;;;;;0.05;0.05;;;;;;;12.97;63.35;102099.69;5021028;28;20412;-78
2022/04/14 03:12:46;;;;;;;0.77;0.77;;;;;;;13.03;63.10;102099.63;5035236;28;20034;-78
2022/04/14 03:15:14;;;;;;;0.03;0.03;;;;;;;12.93;63.34;102099.72;5025231;28;20029;-79
2022/04/14 03:17:40;;;;;;;0.00;0.00;;;;;;;12.92;63.49;102103.28;5041589;22;20038;-76
2022/04/14 03:20:07;;;;;;;0.65;0.65;;;;;;;12.90;63.95;102099.72;5008646;28;20055;-76
2022/04/14 03:22:34;;;;;;;0.30;0.30;;;;;;;12.88;63.17;102100.66;5006867;28;20401;-76
2022/04/14 03:25:04;;;;;;;0.10;0.10;;;;;;;12.85;62.92;102106.88;5000346;28;20026;-76
2022/04/14 03:27:30;;;;;;;0.43;0.43;;;;;;;12.79;63.55;102101.63;4998426;28;20035;-76
2022/04/14 03:29:56;;;;;;;0.00;0.00;;;;;;;12.76;63.22;102113.16;4983429;28;20381;-76
2022/04/14 03:32:24;;;;;;;0.10;0.10;;;;;;;12.73;63.47;102114.97;4987421;28;20117;-76
2022/04/14 03:34:51;;;;;;;0.75;0.75;;;;;;;12.69;63.58;102116.75;4981410;28;20132;-75
2022/04/14 03:37:17;;;;;;;0.00;0.00;;;;;;;12.65;64.20;102119.44;4984398;28;20483;-75
2022/04/14 03:39:43;;;;;;;0.10;0.10;;;;;;;12.64;63.65;102109.75;4976212;28;20035;-76
2022/04/14 03:42:09;;;;;;;0.10;0.10;;;;;;;12.58;64.02;102118.63;4984585;28;20032;-75
2022/04/14 03:44:35;;;;;;;0.00;0.00;;;;;;;12.54;63.42;102123.09;4988199;28;20083;-76
2022/04/14 03:47:01;;;;;;;1.38;0.65;;;;;;;12.50;63.52;102120.47;4984444;28;20042;-76
2022/04/14 03:49:27;;;;;;;0.10;0.10;;;;;;;12.46;64.01;102120.50;4980826;28;20109;-76
2022/04/14 03:51:55;;;;;;;0.00;0.00;;;;;;;12.44;63.78;102121.41;4984378;28;20035;-75
2022/04/14 03:54:21;;;;;;;0.20;0.20;;;;;;;12.41;64.06;102124.06;4977941;28;20446;-76
2022/04/14 03:56:48;;;;;;;0.08;0.08;;;;;;;12.40;64.10;102127.63;4986121;28;20053;-75
2022/04/14 03:59:15;;;;;;;0.03;0.03;;;;;;;12.39;63.98;102131.19;4992055;28;20037;-75
2022/04/14 04:01:41;;;;;;;0.10;0.10;;;;;;;12.39;63.78;102128.53;4999985;28;20030;-75
2022/04/14 04:04:07;;;;;;;0.52;0.52;;;;;;;12.38;63.63;102130.28;5000681;28;20050;-75
2022/04/14 04:06:33;;;;;;;0.13;0.13;;;;;;;12.38;63.43;102129.41;4984965;28;20030;-76
2022/04/14 04:08:59;;;;;;;1.77;0.45;;;;;;;12.36;63.60;102129.44;4983185;28;20034;-75
2022/04/14 04:11:25;;;;;;;0.08;0.08;;;;;;;12.36;63.83;102125.88;4987534;28;20042;-76
2022/04/14 04:13:52;;;;;;;0.10;0.10;;;;;;;12.36;63.96;102128.53;4981480;28;20022;-76
2022/04/14 04:16:18;;;;;;;0.20;0.20;;;;;;;12.35;64.24;102121.44;4991215;28;20030;-76
2022/04/14 04:18:44;;;;;;;0.10;0.10;;;;;;;12.35;64.45;102121.44;4990342;28;20035;-75
2022/04/14 04:21:10;;;;;;;0.10;0.10;;;;;;;12.33;64.95;102128.56;4980448;28;20042;-76
2022/04/14 04:23:36;;;;;;;0.10;0.10;;;;;;;12.32;64.19;102116.16;4987910;28;20395;-76
2022/04/14 04:26:02;;;;;;;0.10;0.10;;;;;;;12.27;65.19;102127.72;4983049;28;20490;-76
2022/04/14 04:28:30;;;;;;;0.10;0.10;;;;;;;12.26;64.74;102123.31;4991367;28;20492;-76
2022/04/14 04:30:57;;;;;;;0.00;0.00;;;;;;;12.25;64.82;102123.28;4986830;28;20045;-76
2022/04/14 04:33:24;;;;;;;0.80;0.80;;;;;;;12.23;65.13;102118.00;4986367;28;20479;-76
2022/04/14 04:35:50;;;;;;;0.10;0.10;;;;;;;12.21;65.46;102125.09;4983180;28;20054;-76
2022/04/14 04:38:17;;;;;;;0.30;0.30;;;;;;;12.21;64.69;102125.09;4984058;28;20035;-76
2022/04/14 04:40:43;;;;;;;0.35;0.35;;;;;;;12.21;64.67;102129.53;4985884;28;20142;-76
2022/04/14 04:43:09;;;;;;;0.00;0.00;;;;;;;12.21;64.89;102124.19;4989570;28;20442;-76
2022/04/14 04:45:36;;;;;;;0.40;0.40;;;;;;;12.22;64.38;102133.94;4989604;28;20030;-76
2022/04/14 04:48:04;;;;;;;0.10;0.10;;;;;;;12.20;64.66;102133.97;4988658;28;20041;-76
2022/04/14 04:50:30;;;;;;;0.08;0.08;;;;;;;12.16;65.39;102134.84;4984265;28;20030;-77
2022/04/14 04:52:56;;;;;;;0.00;0.00;;;;;;;12.17;64.84;102144.59;4990452;28;20030;-77
2022/04/14 04:55:23;;;;;;;0.10;0.10;;;;;;;12.17;64.38;102149.03;4984072;28;20064;-77
2022/04/14 04:57:49;;;;;;;0.10;0.10;;;;;;;12.16;64.07;102152.59;4978438;28;20031;-77
2022/04/14 05:00:15;;;;;;;0.57;0.57;;;;;;;12.15;64.61;102151.72;4965681;28;20034;-77
2022/04/14 05:02:41;;;;;;;0.00;0.00;;;;;;;12.15;64.08;102149.06;4982572;28;20049;-77
2022/04/14 05:05:08;;;;;;;0.10;0.10;;;;;;;12.13;64.51;102157.00;4988901;28;20042;-77
2022/04/14 05:07:34;;;;;;;0.40;0.40;;;;;;;12.11;65.28;102152.59;4984470;28;20030;-77
2022/04/14 05:10:00;;;;;;;0.10;0.10;;;;;;;12.11;64.98;102158.81;4989674;28;20027;-77
2022/04/14 05:12:26;;;;;;;0.47;0.47;;;;;;;12.12;65.16;102159.69;4988132;28;20549;-77
2022/04/14 05:14:52;;;;;;;0.00;0.00;;;;;;;12.11;65.37;102157.91;4981101;28;20398;-77
2022/04/14 05:17:18;;;;;;;0.30;0.30;;;;;;;12.12;65.07;102168.56;4991002;28;20031;-77
2022/04/14 05:19:45;;;;;;;0.10;0.10;;;;;;;12.14;64.32;102171.19;4988378;28;20030;-77
2022/04/14 05:22:11;;;;;;;0.43;0.43;;;;;;;12.13;65.59;102178.25;4985759;28;20030;-77
2022/04/14 05:24:37;;;;;;;0.05;0.05;;;;;;;12.15;64.98;102178.28;4991185;28;20030;-77
2022/04/14 05:27:03;;;;;;;0.00;0.00;;;;;;;12.16;65.60;102174.72;4988540;28;20042;-77
2022/04/14 05:29:30;;;;;;;0.38;0.38;;;;;;;12.16;64.29;102177.38;4988034;28;20101;-77
2022/04/14 05:31:58;;;;;;;0.03;0.03;;;;;;;12.18;65.15;102175.59;4985049;28;20556;-77
2022/04/14 05:34:24;;;;;;;1.23;0.63;;;;;;;12.18;65.24;102177.38;4988249;28;20027;-77
2022/04/14 05:36:50;;;;;;;0.20;0.20;;;;;;;12.20;64.63;102175.56;4991556;28;20061;-77
2022/04/14 05:39:16;;;;;;;0.10;0.10;;;;;;;12.20;64.80;102187.09;4995883;28;20061;-77
2022/04/14 05:41:42;;;;;;;0.20;0.20;;;;;;;12.23;64.31;102184.41;4999900;28;20046;-77
2022/04/14 05:44:08;;;;;;;0.10;0.10;;;;;;;12.26;64.39;102180.84;4999211;28;20494;-77
2022/04/14 05:46:34;;;;;;;5.13;2.10;;;;;;;12.29;64.47;102192.34;4994841;28;20482;-76
2022/04/14 05:49:00;;;;;;;0.43;0.43;;;;;;;12.32;65.23;102180.81;4980828;28;20093;-77
2022/04/14 05:51:26;;;;;;;0.10;0.10;;;;;;;12.37;64.76;102184.34;4990706;28;20038;-77
2022/04/14 05:53:53;;;;;;;1.38;0.77;;;;;;;12.41;65.27;102190.50;4995683;28;20613;-77
2022/04/14 05:56:20;;;;;;;0.20;0.20;;;;;;;12.45;64.64;102189.63;4990959;28;20110;-77
2022/04/14 05:58:46;;;;;;;0.05;0.05;;;;;;;12.49;65.61;102179.88;4989683;28;20085;-79
2022/04/14 06:01:13;;;;;;;0.10;0.10;;;;;;;12.55;64.56;102180.69;4984233;28;20066;-77
2022/04/14 06:03:40;;;;;;;0.15;0.15;;;;;;;12.61;64.42;102187.72;4990996;28;20058;-77
2022/04/14 06:06:09;;;;;;;0.20;0.20;;;;;;;12.64;64.77;102189.50;4990223;28;20437;-77
2022/04/14 06:08:35;;;;;;;0.10;0.10;;;;;;;12.70;64.15;102192.13;4982477;28;20042;-75
2022/04/14 06:11:01;;;;;;;0.10;0.10;;;;;;;12.75;64.45;102188.53;4970768;28;20034;-77
2022/04/14 06:13:27;;;;;;;0.10;0.10;;;;;;;12.80;64.66;102183.19;4991858;28;20018;-78
2022/04/14 06:15:53;;;;;;;0.10;0.10;;;;;;;12.86;64.40;102188.44;4982918;28;20035;-77
2022/04/14 06:18:21;;;;;;;0.00;0.00;;;;;;;12.91;64.78;102191.03;4977336;28;20418;-76
2022/04/14 06:20:49;;;;;;;0.30;0.30;;;;;;;12.98;64.77;102194.56;4980483;28;20034;-77
2022/04/14 06:23:16;;;;;;;0.38;0.38;;;;;;;13.04;65.30;102192.72;4980926;28;20034;-77
2022/04/14 06:25:45;;;;;;;0.68;0.68;;;;;;;13.11;65.40;102193.56;4991940;28;20041;-77
2022/04/14 06:28:11;;;;;;;1.25;1.25;;;;;;;13.20;65.73;102195.25;4992637;28;20021;-77
2022/04/14 06:30:37;;;;;;;0.22;0.22;;;;;;;13.29;65.53;102186.31;4995364;28;20049;-77
2022/04/14 06:33:07;;;;;;;1.05;1.05;;;;;;;13.37;65.17;102190.69;4995088;28;20730;-77
2022/04/14 06:35:33;;;;;;;0.40;0.40;;;;;;;13.48;64.21;102187.03;4993367;28;20026;-77
2022/04/14 06:37:59;;;;;;;0.10;0.10;;;;;;;13.53;65.50;102183.44;4994207;28;20053;-77
2022/04/14 06:40:25;;;;;;;0.68;0.68;;;;;;;13.60;64.88;102189.56;4993003;28;20053;-80
2022/04/14 06:42:51;;;;;;;0.10;0.10;;;;;;;13.67;64.85;102193.00;4986056;28;20027;-77
2022/04/14 06:45:18;;;;;;;0.10;0.10;;;;;;;13.73;64.55;102190.28;4987498;28;20074;-77
2022/04/14 06:47:44;;;;;;;3.20;1.35;;;;;;;13.77;64.91;102189.38;4984280;28;20042;-77
2022/04/14 06:50:11;;;;;;;0.52;0.52;;;;;;;13.84;64.40;102191.03;4995081;28;20069;-77
2022/04/14 06:52:38;;;;;;;0.65;0.47;;;;;;;13.91;64.28;102194.53;4993347;28;20034;-77
2022/04/14 06:55:05;;;;;;;0.80;0.80;;;;;;;13.98;64.02;102193.56;4994151;28;20045;-77
2022/04/14 06:57:31;;;;;;;0.00;0.00;;;;;;;14.03;64.24;102197.03;4994754;28;20031;-77
2022/04/14 06:59:57;;;;;;;0.10;0.10;;;;;;;14.15;63.62;102192.44;4994863;28;20543;-77
2022/04/14 07:02:23;;;;;;;0.98;0.50;;;;;;;14.21;63.38;102201.22;4994130;28;20387;-77
2022/04/14 07:04:50;;;;;;;0.20;0.20;;;;;;;14.30;63.41;102197.56;4991504;28;20037;-77
2022/04/14 07:07:16;;;;;;;0.10;0.10;;;;;;;14.38;63.09;102208.09;4993094;28;20034;-76
2022/04/14 07:09:42;;;;;;;1.05;0.52;;;;;;;14.51;63.00;102215.03;4993587;28;20046;-77
2022/04/14 07:12:08;;;;;;;0.35;0.35;;;;;;;14.57;62.93;102217.63;4982827;28;20039;-77
2022/04/14 07:14:35;;;;;;;0.80;0.57;;;;;;;14.68;62.50;102221.97;4957490;28;20074;-77
2022/04/14 07:17:01;;;;;;;0.65;0.52;;;;;;;14.79;62.57;102228.00;4979455;28;20038;-77
2022/04/14 07:19:27;;;;;;;0.82;0.82;;;;;;;14.86;62.40;102224.31;4991631;28;20030;-77
2022/04/14 07:21:54;;;;;;;0.68;0.68;;;;;;;15.05;62.16;102224.03;4990030;28;20088;-77
2022/04/14 07:24:20;;;;;;;0.55;0.55;;;;;;;15.18;62.05;102222.91;5003942;28;20081;-76
2022/04/14 07:26:47;;;;;;;0.08;0.08;;;;;;;15.31;61.92;102212.88;5007125;28;20031;-76
2022/04/14 07:29:13;;;;;;;0.10;0.10;;;;;;;15.45;61.90;102223.34;5004294;28;20034;-77
2022/04/14 07:31:41;;;;;;;0.10;0.10;;;;;;;15.59;61.70;102225.75;4993649;28;20033;-77
2022/04/14 07:34:10;;;;;;;0.00;0.00;;;;;;;15.73;61.33;102220.13;4994715;28;20080;-77
2022/04/14 07:36:36;;;;;;;0.10;0.10;;;;;;;15.82;61.15;102222.66;4994435;28;20034;-77
2022/04/14 07:39:04;;;;;;;0.00;0.00;;;;;;;15.90;61.00;102224.28;4994548;28;20077;-77
2022/04/14 07:41:30;;;;;;;0.30;0.30;;;;;;;15.95;60.45;102225.06;4993616;28;20121;-77
2022/04/14 07:43:56;;;;;;;0.05;0.05;;;;;;;15.99;60.61;102234.81;4988457;28;20110;-77
2022/04/14 07:46:23;;;;;;;0.22;0.22;;;;;;;15.99;60.65;102232.13;4994068;28;20501;-77
2022/04/14 07:48:49;;;;;;;0.20;0.20;;;;;;;15.98;60.10;102231.25;4986386;28;20387;-77
2022/04/14 07:51:15;;;;;;;0.10;0.10;;;;;;;16.01;60.51;102241.00;4993093;28;20121;-77
2022/04/14 07:53:41;;;;;;;0.00;0.00;;;;;;;16.02;60.21;102242.75;4993332;28;20565;-77
2022/04/14 07:56:07;;;;;;;0.85;0.40;;;;;;;16.02;59.89;102232.06;4987875;28;20084;-77
2022/04/14 07:58:34;;;;;;;0.10;0.10;;;;;;;16.06;60.01;102236.41;4992699;28;20612;-77
2022/04/14 08:01:00;;;;;;;0.10;0.10;;;;;;;16.08;60.00;102237.28;4989482;28;20046;-78
2022/04/14 08:03:26;;;;;;;0.68;0.68;;;;;;;16.13;59.67;102234.53;4984453;28;20038;-77
2022/04/14 08:05:52;;;;;;;0.10;0.10;;;;;;;16.16;59.31;102240.69;4993447;28;20037;-77
2022/04/14 08:08:20;;;;;;;0.10;0.10;;;;;;;16.19;59.45;102231.72;4988675;28;20110;-77
2022/04/14 08:10:49;;;;;;;0.95;0.95;;;;;;;16.25;59.31;102233.34;4982620;28;20022;-77
2022/04/14 08:13:17;;;;;;;0.17;0.17;;;;;;;16.28;59.17;102227.97;4991688;28;20104;-77
2022/04/14 08:15:44;;;;;;;0.10;0.10;;;;;;;16.29;58.73;102224.38;4992050;28;20567;-77
2022/04/14 08:18:10;;;;;;;0.13;0.13;;;;;;;16.36;59.02;102231.31;4993012;28;20395;-77
2022/04/14 08:20:39;;;;;;;0.65;0.55;;;;;;;16.42;58.85;102235.69;4993611;28;20482;-77
2022/04/14 08:23:11;;;;;;;0.00;0.00;;;;;;;16.44;58.17;102239.22;4990625;28;20125;-77
2022/04/14 08:25:38;;;;;;;0.40;0.40;;;;;;;16.52;58.39;102244.38;4992571;28;20084;-77
2022/04/14 08:28:06;;;;;;;0.00;0.00;;;;;;;16.59;58.45;102237.97;4993193;28;20445;-77
2022/04/14 08:30:34;;;;;;;1.23;1.20;;;;;;;16.69;58.56;102239.53;4983610;28;20038;-77
2022/04/14 08:33:05;;;;;;;0.90;0.90;;;;;;;16.76;58.37;102229.53;4988917;28;20085;-77
2022/04/14 08:35:32;;;;;;;0.10;0.10;;;;;;;16.85;58.00;102229.34;4988233;28;20031;-77
2022/04/14 08:38:01;;;;;;;0.10;0.10;;;;;;;16.90;57.73;102234.59;4987476;28;20482;-77
2022/04/14 08:40:32;;;;;;;0.32;0.32;;;;;;;16.97;57.69;102237.09;4986017;28;20026;-77
2022/04/14 08:45:55;;;;;;;0.10;0.10;;;;;;;17.21;57.48;102231.16;5107772;27;20990;-75
2022/04/14 08:48:21;;;;;;;;;;;;;;;17.38;57.24;102220.88;5107249;28;20035;-76
2022/04/14 08:50:50;;;;;;;0.03;0.03;;;;;;;17.34;57.33;102211.16;5108929;28;19950;-74
2022/04/14 08:53:18;;;;;;;0.17;0.17;;;;;;;17.42;57.12;102217.22;5092784;28;20032;-76
2022/04/14 08:55:45;;;;;;;0.10;0.10;;;;;;;17.53;56.74;102210.66;5093031;28;20023;-75
2022/04/14 08:58:15;;;;;;;0.47;0.47;;;;;;;17.65;56.92;102202.28;5099273;28;20032;-76
2022/04/14 09:00:42;;;;;;;0.10;0.10;;;;;;;17.74;57.05;102198.47;5099014;28;20439;-75
2022/04/14 09:03:08;;;;;;;0.93;0.70;;;;;;;17.84;56.87;102207.13;5108198;28;20406;-75
2022/04/14 09:05:35;;;;;;;0.30;0.30;;;;;;;17.96;56.65;102201.44;5115112;28;20028;-75
2022/04/14 09:08:01;;;;;;;0.57;0.22;;;;;;;18.05;56.28;102203.84;5125810;28;20058;-77
2022/04/14 09:10:27;;;;;;;0.22;0.22;;;;;;;18.12;56.37;102204.56;5121214;28;20043;-75
2022/04/14 09:12:53;;;;;;;0.30;0.30;;;;;;;18.21;55.76;102204.25;5107907;28;20059;-75
2022/04/14 09:15:20;;;;;;;1.38;1.38;;;;;;;18.30;55.21;102203.09;5105238;28;20501;-75
2022/04/14 09:17:46;;;;;;;0.10;0.10;;;;;;;18.46;55.16;102202.66;5108484;28;20024;-76
2022/04/14 09:23:26;;;;;;;0.10;0.10;;;;;;;18.76;54.69;102201.63;5114281;27;20416;-77
2022/04/14 09:26:11;;;;;;;0.32;0.32;;;;;;;18.79;54.79;102203.38;5086867;28;20036;-75
2022/04/14 09:28:39;;;;;;;0.25;0.25;;;;;;;18.84;53.59;102205.88;5088222;28;20024;-76
2022/04/14 09:33:48;;;;;;;0.20;0.20;;;;;;;19.03;52.51;102216.94;5122005;27;1203014;-77
2022/04/14 09:36:18;;;;;;;0.10;0.10;;;;;;;19.08;52.98;102223.03;5138455;28;20066;-78
2022/04/14 09:39:06;;;;;;;0.55;0.55;;;;;;;19.23;53.08;102232.38;5135047;27;20027;-76
2022/04/14 09:41:42;;;;;;;0.10;0.10;;;;;;;19.20;53.05;102237.84;5129621;27;20028;-77
2022/04/14 09:44:10;;;;;;;0.30;0.30;;;;;;;19.27;52.46;102239.38;5116121;28;20072;-76
2022/04/14 09:46:41;;;;;;;0.10;0.10;;;;;;;19.36;52.30;102248.94;5114917;28;20030;-78
2022/04/14 09:49:09;;;;;;;0.77;0.77;;;;;;;19.47;52.82;102251.25;5114921;28;20548;-77
2022/04/14 09:51:39;;;;;;;1.38;0.77;;;;;;;19.50;51.46;102245.75;5114388;28;20107;-77
2022/04/14 09:54:15;;;;;;;0.00;0.00;;;;;;;19.64;52.25;102253.34;5114894;28;20028;-77
2022/04/14 09:59:29;;;;;;;0.10;0.10;;;;;;;19.94;51.72;102247.81;5076077;28;20383;-77
2022/04/14 10:04:48;;;;;;;0.10;0.10;;;;;;;20.37;51.62;102243.47;5104836;27;20408;-78
2022/04/14 10:09:51;;;;;;;0.10;0.10;;;;;;;20.75;51.48;102243.81;5113491;27;1194643;-77
2022/04/14 10:17:37;;;;;;;0.10;0.10;;;;;;;21.13;51.18;102240.47;5037377;27;1908625;-77
2022/04/14 10:20:05;;;;;;;0.10;0.10;;;;;;;21.24;49.52;102234.63;5078842;28;20032;-77
2022/04/14 10:22:32;;;;;;;0.10;0.10;;;;;;;21.34;50.50;102239.53;5056364;28;20038;-77
2022/04/14 10:25:00;;;;;;;0.15;0.15;;;;;;;21.38;50.30;102242.09;5040783;28;20040;-77
2022/04/14 10:27:27;;;;;;;0.10;0.10;;;;;;;21.37;49.24;102234.94;5054918;28;20037;-78
2022/04/14 10:29:54;;;;;;;0.10;0.10;;;;;;;21.45;50.21;102238.19;5039783;28;20053;-77
2022/04/14 10:32:21;;;;;;;0.10;0.10;;;;;;;21.55;50.09;102238.69;5029819;28;20045;-76
2022/04/14 10:34:48;;;;;;;0.10;0.10;;;;;;;21.68;49.44;102233.63;5028573;28;20044;-76
2022/04/14 10:37:23;;;;;;;0.10;0.10;;;;;;;21.79;48.44;102225.94;5029296;28;20467;-77
2022/04/14 10:39:49;;;;;;;0.38;0.38;;;;;;;21.90;48.68;102234.41;5031078;28;20413;-76
2022/04/14 10:42:22;;;;;;;0.00;0.00;;;;;;;21.89;47.29;102237.19;5033072;28;20040;-77
2022/04/14 10:44:50;;;;;;;0.35;0.35;;;;;;;21.89;47.72;102239.88;5040815;28;20033;-77
2022/04/14 10:55:56;;;;;;;0.40;0.40;;;;;;;21.58;48.58;102242.16;5123634;27;20372;-78
2022/04/14 11:01:06;;;;;;;0.20;0.20;;;;;;;21.24;47.38;102240.88;5079601;28;20416;-76
2022/04/14 11:03:52;;;;;;;0.00;0.00;;;;;;;21.22;48.47;102242.78;5065573;28;20036;-78
2022/04/14 11:06:47;;;;;;;0.10;0.10;;;;;;;21.09;48.24;102237.00;5065337;28;20036;-77
2022/04/14 11:12:29;;;;;;;0.10;0.10;;;;;;;20.95;48.94;102245.69;5079655;28;20402;-77
2022/04/14 11:15:12;;;;;;;0.10;0.10;;;;;;;21.07;49.24;102248.81;5063273;28;20114;-76
2022/04/14 11:25:45;;;;;;;0.00;0.00;;;;;;;21.92;46.57;102232.53;5119728;27;20416;-76
2022/04/14 11:30:57;;;;;;;0.10;0.10;;;;;;;22.57;46.43;102234.91;5080773;28;20383;-77
2022/04/14 11:33:33;;;;;;;0.00;0.00;;;;;;;22.66;45.79;102241.69;5083074;28;20045;-77
2022/04/14 11:36:21;;;;;;;0.10;0.10;;;;;;;22.55;45.11;102231.38;5071683;28;20029;-77
2022/04/14 11:41:44;;;;;;;0.10;0.10;;;;;;;22.17;46.40;102226.00;5082858;28;20369;-77
2022/04/14 11:44:15;;;;;;;0.10;0.10;;;;;;;22.17;45.25;102225.09;5063318;28;20053;-76
2022/04/14 11:46:44;;;;;;;0.10;0.10;;;;;;;22.33;43.84;102209.94;5062842;28;20059;-77
2022/04/14 11:49:14;;;;;;;0.52;0.52;;;;;;;22.62;45.65;102221.19;5062000;28;20040;-77
2022/04/14 11:54:33;;;;;;;0.10;0.10;;;;;;;22.81;42.06;102225.69;5079227;28;20405;-78
2022/04/14 11:57:07;;;;;;;0.10;0.10;;;;;;;22.77;43.99;102227.66;5071823;28;20039;-77
2022/04/14 11:59:37;;;;;;;0.15;0.15;;;;;;;22.68;44.16;102230.78;5078154;28;20033;-77
2022/04/14 12:02:10;;;;;;;0.10;0.10;;;;;;;22.54;44.80;102234.16;5061311;28;20033;-77
2022/04/14 12:04:39;;;;;;;0.00;0.00;;;;;;;22.26;44.14;102230.06;5064164;28;20025;-77
2022/04/14 12:07:08;;;;;;;0.05;0.05;;;;;;;22.20;44.21;102241.16;5060277;28;20056;-78
2022/04/14 12:09:34;;;;;;;0.10;0.10;;;;;;;22.11;44.47;102245.16;5063752;28;20037;-77
2022/04/14 12:12:18;;;;;;;0.10;0.10;;;;;;;22.21;44.82;102232.97;5060412;28;20043;-78
2022/04/14 12:17:22;;;;;;;0.00;0.00;;;;;;;22.33;44.95;102242.34;5114083;27;20055;-77
2022/04/14 12:19:54;;;;;;;0.20;0.20;;;;;;;22.25;41.47;102239.97;5105690;28;20055;-77
2022/04/14 12:22:22;;;;;;;0.13;0.13;;;;;;;22.14;42.87;102242.31;5100577;28;20051;-77
2022/04/14 12:24:57;;;;;;;0.10;0.10;;;;;;;22.27;42.85;102239.94;5100209;28;20024;-77